Paddockwood, Canada
Current Conditions -  °F | °C
As of 3:15 PM on Saturday 22 Nov 2014 (Local Time) from CYPA Reporting Station
Light Snow Light Snow  
Wind Chill:   Ceiling: 900
Heat Index: 21°   Visibility: 1.5mi
Dew Point: 18°   Wind: 22mph
Humidity: 86%   Direction: 80°E
Pressure: 29.31"   Gusts: 29mph
Location:  53.5°N, 105.57°W
Report Text: CYPA 222115Z 08019G25KT 1 1/2SM -SN DRSN OVC009 M06/M08 A2931 RMK SF8 SLP953
Loading
Personal Weather Stations






























Interactive Weather Map New forecast layout! Learn more

10-Day Weather Forecast

Advertisements
Track Severe Weather on mobile